Streamwood, IL (60107)

1:26 AM CDT on April 27, 2017 (GMT -0500)
Readers Apiaries | | Change Station

Elev 814 ft 42.01 °N, 88.17 °W | Updated 32 seconds ago

Rain
Rain
58.5 °F
Feels Like 58.5 °F
N
0.0
Wind Variable Wind from SSW

Today
High -- | Low -- °F
--% Chance of Precip.
Yesterday
High -- | Low -- °F
Precip. -- in
Pressure 29.38 in
Visibility 4.0 miles
Clouds Mostly Cloudy 600 ft
Overcast 1900 ft
Dew Point 58 °F
Humidity 98%
Rainfall 0.11 in
Snow Depth Not available.
5:53 AM 7:47 PM
New Moon, 1% visible
SPECI KDPA 270609Z 16006KT 4SM -RA BR BKN006 OVC019 15/15 A2938 RMK AO2 P0002 T01500150
Pressure 29.38 in
Visibility 4.0 miles
Clouds Mostly Cloudy 600 ft
Overcast 1900 ft
Dew Point 58 °F
Humidity 98%
Rainfall 0.11 in
Snow Depth Not available.
5:53 AM 7:47 PM
New Moon, 1% visible
SPECI KDPA 270609Z 16006KT 4SM -RA BR BKN006 OVC019 15/15 A2938 RMK AO2 P0002 T01500150

Get Severe Weather Alerts

Thanks for signing up!

Be on the lookout for a verification email in your inbox.

You'll start receiving the daily forecast at 8 AM.

×

10-Day Weather Forecast

Almanac

Astronomy

Apr. 27, 2017 Rise Set
Actual Time
Civil Twilight
Nautical Twilight
Astronomical Twilight
Moon
Length of Visible Light
Length of Day
Tomorrow will be .
, % of the Moon is Illuminated

Today's Extremes

State Highs State Lows

Community

WunderPhotos

WunderBlog® & News

Nearby

Air Quality

  Air Quality AQ Index Pollutant
Not available.

Snow Depth

Station Depth Elevation

Earthquake Activity

City Distance Mag. Time & Date
Minimum magnitude displayed is 2.5.

Coastal Water Temperatures

Place Temperature

Stations

Nearby Weather Stations

Station Location Temp. Windchill Dew Point Humidity Wind Precip. Elev Updated Type
                   

Watches & Warnings

There are currently no watches in effect.